Laida — EAVE — position and weather

sailwx.info

Track history (hours):
 
Tides and Currents Weather Stations Pressure Air Temp Water Temp Dewpoint Dewpoint Depression Visibility Wind Speed Wind Dir Waves Ship Positions

Laida

Last reported at 2017-Apr-23 08:31 UTC. Time now 2017-Apr-25 06:42 UTC.
Position N 43°32' W 001°32'.

Length 100 m; draft 5.9 m.

Type: Cargo ship. MMSI: 224509000.

Date/timePositionNaut miles runAvg speedWind from/ knotsBaromVisibWave heightAir tempDewpointWater temp
2017-Apr-23 08:31N 43°32' W 001°32'011.0
2017-Apr-23 08:30N 43°32' W 001°32'24 8.9
2017-Apr-23 05:45N 43°53' W 001°49'21911.6
2017-Apr-22 10:51N 47°01' W 004°28'411.6
2017-Apr-22 10:30N 47°05' W 004°31'811.3
2017-Apr-22 09:45N 47°12' W 004°37'411.2
2017-Apr-22 09:25N 47°15' W 004°40'511.1
2017-Apr-22 09:00N 47°19' W 004°43'611.2
2017-Apr-22 08:30N 47°24' W 004°48'711.2
2017-Apr-22 07:52N 47°30' W 004°53'411.3
2017-Apr-22 07:28N 47°34' W 004°57'511.3
2017-Apr-22 07:00N 47°38' W 005°01'611.0
2017-Apr-22 06:30N 47°44' W 005°03'611.3
2017-Apr-22 06:01N 47°49' W 005°07'711.7
2017-Apr-22 05:23N 47°55' W 005°13'612.2
2017-Apr-22 04:53N 48°00' W 005°16'512.1
2017-Apr-22 04:26N 48°06' W 005°19'2611.9
2017-Apr-22 02:16N 48°31' W 005°23'1011.3
2017-Apr-22 01:24N 48°39' W 005°14'410.6
2017-Apr-22 01:00N 48°42' W 005°09'5 9.6
2017-Apr-22 00:30N 48°42' W 005°02'610.8
2017-Apr-21 23:57N 48°44' W 004°53'710.7
2017-Apr-21 23:16N 48°46' W 004°43'410.9
2017-Apr-21 22:54N 48°48' W 004°37'  
2017-Apr-16 07:58N 48°39' W 002°01'0 0.0
2017-Apr-14 22:58N 48°39' W 002°01'0 0.4
2017-Apr-14 22:22N 48°39' W 002°01'3 2.6
2017-Apr-14 21:15N 48°40' W 002°05'3 6.0
2017-Apr-14 20:49N 48°43' W 002°07'1 1.3
2017-Apr-14 19:56N 48°42' W 002°05'0 0.0
2017-Apr-14 17:58N 48°42' W 002°05'0 0.0
2017-Apr-14 16:45N 48°42' W 002°05'6 2.6
2017-Apr-14 14:27N 48°44' W 002°14'12 9.7
2017-Apr-14 13:11N 48°54' W 002°26'96 8.4
2017-Apr-14 01:43N 48°45' W 004°51'211.0
2017-Apr-14 01:30N 48°44' W 004°55'510.9
2017-Apr-14 01:00N 48°42' W 005°02'510.4
2017-Apr-14 00:30N 48°40' W 005°10'5 9.8
2017-Apr-13 23:59N 48°37' W 005°16'21 8.9
2017-Apr-13 21:33N 48°16' W 005°22'1010.0
2017-Apr-13 20:33N 48°06' W 005°19'510.0
2017-Apr-13 20:02N 48°01' W 005°18'510.1
2017-Apr-13 19:33N 47°57' W 005°14'110.1
2017-Apr-13 19:27N 47°56' W 005°13'410.2
2017-Apr-13 19:01N 47°52' W 005°10'510.7
2017-Apr-13 18:31N 47°47' W 005°06'510.8
2017-Apr-13 18:00N 47°43' W 005°02'611.1
2017-Apr-13 17:27N 47°37' W 004°57'4211.5
2017-Apr-13 13:49N 47°01' W 004°26'911.9
2017-Apr-13 13:01N 46°53' W 004°19'011.8
2017-Apr-13 13:00N 46°53' W 004°19'611.8
2017-Apr-13 12:29N 46°48' W 004°14'611.8
2017-Apr-13 11:58N 46°42' W 004°10'611.6
2017-Apr-13 11:28N 46°37' W 004°06'  
Track history (hours):
 
Tides and Currents Weather Stations Pressure Air Temp Water Temp Dewpoint Dewpoint Depression Visibility Wind Speed Wind Dir Waves Ship Positions

Laida

Last reported at 2017-Apr-23 08:31 UTC. Time now 2017-Apr-25 06:42 UTC.
Position N 43°32' W 001°32'.

Length 100 m; draft 5.9 m.

Type: Cargo ship. MMSI: 224509000.

Date/timePositionNaut miles runAvg speedWind from/ knotsBaromVisibWave heightAir tempDewpointWater temp
2017-Apr-23 08:31N 43°32' W 001°32'011.0
2017-Apr-23 08:30N 43°32' W 001°32'24 8.9
2017-Apr-23 05:45N 43°53' W 001°49'21911.6
2017-Apr-22 10:51N 47°01' W 004°28'411.6
2017-Apr-22 10:30N 47°05' W 004°31'811.3
2017-Apr-22 09:45N 47°12' W 004°37'411.2
2017-Apr-22 09:25N 47°15' W 004°40'511.1
2017-Apr-22 09:00N 47°19' W 004°43'611.2
2017-Apr-22 08:30N 47°24' W 004°48'711.2
2017-Apr-22 07:52N 47°30' W 004°53'411.3
2017-Apr-22 07:28N 47°34' W 004°57'511.3
2017-Apr-22 07:00N 47°38' W 005°01'611.0
2017-Apr-22 06:30N 47°44' W 005°03'611.3
2017-Apr-22 06:01N 47°49' W 005°07'711.7
2017-Apr-22 05:23N 47°55' W 005°13'612.2
2017-Apr-22 04:53N 48°00' W 005°16'512.1
2017-Apr-22 04:26N 48°06' W 005°19'2611.9
2017-Apr-22 02:16N 48°31' W 005°23'1011.3
2017-Apr-22 01:24N 48°39' W 005°14'410.6
2017-Apr-22 01:00N 48°42' W 005°09'5 9.6
2017-Apr-22 00:30N 48°42' W 005°02'610.8
2017-Apr-21 23:57N 48°44' W 004°53'710.7
2017-Apr-21 23:16N 48°46' W 004°43'410.9
2017-Apr-21 22:54N 48°48' W 004°37'  
2017-Apr-16 07:58N 48°39' W 002°01'0 0.0
2017-Apr-14 22:58N 48°39' W 002°01'0 0.4
2017-Apr-14 22:22N 48°39' W 002°01'3 2.6
2017-Apr-14 21:15N 48°40' W 002°05'3 6.0
2017-Apr-14 20:49N 48°43' W 002°07'1 1.3
2017-Apr-14 19:56N 48°42' W 002°05'0 0.0
2017-Apr-14 17:58N 48°42' W 002°05'0 0.0
2017-Apr-14 16:45N 48°42' W 002°05'6 2.6
2017-Apr-14 14:27N 48°44' W 002°14'12 9.7
2017-Apr-14 13:11N 48°54' W 002°26'96 8.4
2017-Apr-14 01:43N 48°45' W 004°51'211.0
2017-Apr-14 01:30N 48°44' W 004°55'510.9
2017-Apr-14 01:00N 48°42' W 005°02'510.4
2017-Apr-14 00:30N 48°40' W 005°10'5 9.8
2017-Apr-13 23:59N 48°37' W 005°16'21 8.9
2017-Apr-13 21:33N 48°16' W 005°22'1010.0
2017-Apr-13 20:33N 48°06' W 005°19'510.0
2017-Apr-13 20:02N 48°01' W 005°18'510.1
2017-Apr-13 19:33N 47°57' W 005°14'110.1
2017-Apr-13 19:27N 47°56' W 005°13'410.2
2017-Apr-13 19:01N 47°52' W 005°10'510.7
2017-Apr-13 18:31N 47°47' W 005°06'510.8
2017-Apr-13 18:00N 47°43' W 005°02'611.1
2017-Apr-13 17:27N 47°37' W 004°57'4211.5
2017-Apr-13 13:49N 47°01' W 004°26'911.9
2017-Apr-13 13:01N 46°53' W 004°19'011.8
2017-Apr-13 13:00N 46°53' W 004°19'611.8
2017-Apr-13 12:29N 46°48' W 004°14'611.8
2017-Apr-13 11:58N 46°42' W 004°10'611.6
2017-Apr-13 11:28N 46°37' W 004°06'  

Dump ship's entire track history